Time;durP1;ratioP1;P1;durP2;ratioP2;P2;SDS_P1;SDS_P2;PMS_P1;PMS_P2;Temp;Humidity;BMP_temperature;BMP_pressure;BME280_temperature;BME280_humidity;BME280_pressure;Samples;Min_cycle;Max_cycle;Signal;HPM_P1;HPM_P2
2022/06/08 00:02:06;;;;;;;0.75;0.60;;;;;;;;;;7394733;19;20022;-78
2022/06/08 00:04:31;;;;;;;1.10;0.60;;;;;;;;;;7397720;19;20010;-78
2022/06/08 00:06:57;;;;;;;0.57;0.30;;;;;;;;;;7395576;19;20028;-78
2022/06/08 00:09:22;;;;;;;0.50;0.50;;;;;;;;;;7391415;19;20010;-78
2022/06/08 00:11:48;;;;;;;0.52;0.50;;;;;;;;;;7394989;19;20011;-79
2022/06/08 00:14:14;;;;;;;1.75;0.50;;;;;;;;;;7395941;19;20502;-78
2022/06/08 00:16:41;;;;;;;0.22;0.20;;;;;;;;;;7396026;19;20502;-78
2022/06/08 00:19:06;;;;;;;0.80;0.60;;;;;;;;;;7393653;19;20006;-78
2022/06/08 00:21:32;;;;;;;0.47;0.40;;;;;;;;;;7396346;19;20006;-78
2022/06/08 00:23:57;;;;;;;0.95;0.60;;;;;;;;;;7393205;19;20010;-78
2022/06/08 00:26:24;;;;;;;1.90;0.47;;;;;;;;;;7394168;19;20038;-78
2022/06/08 00:28:50;;;;;;;0.40;0.40;;;;;;;;;;7394594;19;20015;-78
2022/06/08 00:31:16;;;;;;;0.85;0.45;;;;;;;;;;7394967;19;20466;-78
2022/06/08 00:33:41;;;;;;;2.17;0.43;;;;;;;;;;7395571;19;19998;-78
2022/06/08 00:36:07;;;;;;;1.48;0.35;;;;;;;;;;7396049;19;20013;-78
2022/06/08 00:38:32;;;;;;;1.10;0.30;;;;;;;;;;7395557;19;20112;-78
2022/06/08 00:41:27;;;;;;;2.83;0.70;;;;;;;;;;7395245;19;20139;-78
2022/06/08 00:43:53;;;;;;;0.35;0.35;;;;;;;;;;7393580;19;20010;-78
2022/06/08 00:46:19;;;;;;;2.15;0.30;;;;;;;;;;7394314;19;20498;-78
2022/06/08 00:48:53;;;;;;;0.57;0.40;;;;;;;;;;7393339;19;20015;-78
2022/06/08 00:51:19;;;;;;;0.30;0.30;;;;;;;;;;7395976;19;20014;-78
2022/06/08 00:53:57;;;;;;;0.40;0.35;;;;;;;;;;7395696;19;20557;-78
2022/06/08 00:56:32;;;;;;;0.28;0.28;;;;;;;;;;7396200;19;20010;-78
2022/06/08 00:58:58;;;;;;;0.63;0.47;;;;;;;;;;7393351;19;20032;-78
2022/06/08 01:01:24;;;;;;;2.38;0.60;;;;;;;;;;7395084;19;20034;-79
2022/06/08 01:04:03;;;;;;;1.10;0.35;;;;;;;;;;7394718;19;20102;-78
2022/06/08 01:06:29;;;;;;;0.95;0.32;;;;;;;;;;7392301;19;21005;-78
2022/06/08 01:08:54;;;;;;;1.05;0.40;;;;;;;;;;7392810;19;20006;-78
2022/06/08 01:11:27;;;;;;;1.58;0.38;;;;;;;;;;7395773;19;20007;-78
2022/06/08 01:13:58;;;;;;;0.30;0.30;;;;;;;;;;7394659;19;20064;-78
2022/06/08 01:16:23;;;;;;;1.08;0.38;;;;;;;;;;7395561;19;20073;-78
2022/06/08 01:18:49;;;;;;;0.70;0.40;;;;;;;;;;7395051;19;20006;-78
2022/06/08 01:21:20;;;;;;;1.00;0.30;;;;;;;;;;7393990;19;20010;-78
2022/06/08 01:23:53;;;;;;;1.85;0.40;;;;;;;;;;7391844;19;20041;-78
2022/06/08 01:26:26;;;;;;;1.25;0.38;;;;;;;;;;7395871;19;20355;-78
2022/06/08 01:29:07;;;;;;;3.30;0.40;;;;;;;;;;7391871;19;20112;-78
2022/06/08 01:32:02;;;;;;;0.30;0.30;;;;;;;;;;7394662;19;20022;-78
2022/06/08 01:34:45;;;;;;;0.60;0.28;;;;;;;;;;7392374;19;20010;-78
2022/06/08 01:37:14;;;;;;;0.43;0.40;;;;;;;;;;7393981;19;20007;-78
2022/06/08 01:40:33;;;;;;;0.60;0.35;;;;;;;;;;7390108;19;20411;-78
2022/06/08 01:43:13;;;;;;;0.38;0.32;;;;;;;;;;7389912;19;20522;-78
2022/06/08 01:46:00;;;;;;;1.25;0.50;;;;;;;;;;7390437;19;20014;-78
2022/06/08 01:48:55;;;;;;;0.40;0.35;;;;;;;;;;7391639;19;20039;-78
2022/06/08 01:51:49;;;;;;;3.05;1.02;;;;;;;;;;7392494;19;20016;-78
2022/06/08 01:54:26;;;;;;;0.30;0.30;;;;;;;;;;7393239;19;20935;-78
2022/06/08 01:57:23;;;;;;;1.52;0.50;;;;;;;;;;7394207;19;20014;-78
2022/06/08 02:00:09;;;;;;;1.67;0.47;;;;;;;;;;7391717;19;20037;-78
2022/06/08 02:02:40;;;;;;;;;;;;;;;;;;7392397;19;20002;-78
2022/06/08 02:05:50;;;;;;;2.60;0.50;;;;;;;;;;7391859;19;20335;-78
2022/06/08 02:08:34;;;;;;;0.57;0.35;;;;;;;;;;7388566;19;20503;-78
2022/06/08 02:11:11;;;;;;;1.85;0.45;;;;;;;;;;7392178;19;20014;-78
2022/06/08 02:13:51;;;;;;;1.25;0.40;;;;;;;;;;7393068;19;20007;-78
2022/06/08 02:16:38;;;;;;;0.38;0.38;;;;;;;;;;7393974;19;20011;-78
2022/06/08 02:19:10;;;;;;;0.35;0.35;;;;;;;;;;7389774;19;20018;-78
2022/06/08 02:21:44;;;;;;;0.95;0.40;;;;;;;;;;7392486;19;20270;-78
2022/06/08 02:24:21;;;;;;;0.32;0.32;;;;;;;;;;7390441;19;20005;-78
2022/06/08 02:27:00;;;;;;;1.13;0.38;;;;;;;;;;7391579;19;20368;-78
2022/06/08 02:29:31;;;;;;;0.40;0.40;;;;;;;;;;7389596;19;20515;-78
2022/06/08 02:35:17;;;;;;;0.95;0.60;;;;;;;;;;7400660;19;20035;-78
2022/06/08 02:37:47;;;;;;;1.45;0.60;;;;;;;;;;7400381;19;20010;-78
2022/06/08 02:40:17;;;;;;;0.40;0.40;;;;;;;;;;7397913;19;20038;-78
2022/06/08 02:42:49;;;;;;;1.20;0.57;;;;;;;;;;7399208;19;20010;-78
2022/06/08 02:45:23;;;;;;;1.42;0.40;;;;;;;;;;7399264;19;20030;-78
2022/06/08 02:47:51;;;;;;;0.50;0.50;;;;;;;;;;7402117;19;20021;-78
2022/06/08 02:50:24;;;;;;;5.00;0.60;;;;;;;;;;7394470;19;20655;-78
2022/06/08 02:52:52;;;;;;;1.55;0.45;;;;;;;;;;7397904;19;20027;-78
2022/06/08 02:55:36;;;;;;;0.40;0.40;;;;;;;;;;7396834;19;20015;-78
2022/06/08 02:58:08;;;;;;;5.68;0.65;;;;;;;;;;7399447;19;20014;-78
2022/06/08 03:00:40;;;;;;;0.95;0.73;;;;;;;;;;7396932;19;20007;-78
2022/06/08 03:03:12;;;;;;;0.40;0.30;;;;;;;;;;7399778;19;20392;-78
2022/06/08 03:05:46;;;;;;;0.50;0.50;;;;;;;;;;7398229;19;20031;-78
2022/06/08 03:08:19;;;;;;;1.00;0.50;;;;;;;;;;7399185;19;20038;-78
2022/06/08 03:10:47;;;;;;;1.15;0.60;;;;;;;;;;7399287;19;20003;-78
2022/06/08 03:13:22;;;;;;;1.55;0.50;;;;;;;;;;7397589;19;20014;-78
2022/06/08 03:15:56;;;;;;;2.15;0.52;;;;;;;;;;7400071;19;20027;-78
2022/06/08 03:18:22;;;;;;;0.93;0.55;;;;;;;;;;7413926;19;20019;-78
2022/06/08 03:20:47;;;;;;;0.82;0.40;;;;;;;;;;7418210;19;20007;-78
2022/06/08 03:23:13;;;;;;;2.05;0.45;;;;;;;;;;7417742;19;20034;-78
2022/06/08 03:25:38;;;;;;;0.50;0.43;;;;;;;;;;7411676;19;20036;-78
2022/06/08 03:28:04;;;;;;;0.52;0.30;;;;;;;;;;7409460;19;20506;-77
2022/06/08 03:30:30;;;;;;;2.95;0.60;;;;;;;;;;7413000;19;20027;-78
2022/06/08 03:32:55;;;;;;;1.42;0.55;;;;;;;;;;7395624;19;20350;-78
2022/06/08 03:35:21;;;;;;;0.68;0.50;;;;;;;;;;7393141;19;20014;-78
2022/06/08 03:37:46;;;;;;;0.75;0.70;;;;;;;;;;7398146;19;20014;-78
2022/06/08 03:40:12;;;;;;;1.17;0.50;;;;;;;;;;7395255;19;20090;-78
2022/06/08 03:42:38;;;;;;;2.28;0.73;;;;;;;;;;7395704;19;20021;-78
2022/06/08 03:45:05;;;;;;;1.52;0.70;;;;;;;;;;7395604;19;20014;-78
2022/06/08 03:47:35;;;;;;;0.95;0.52;;;;;;;;;;7398923;19;20039;-78
2022/06/08 03:50:05;;;;;;;0.93;0.80;;;;;;;;;;7396181;19;20009;-78
2022/06/08 03:52:37;;;;;;;1.65;0.60;;;;;;;;;;7394499;19;20320;-78
2022/06/08 03:55:06;;;;;;;0.50;0.50;;;;;;;;;;7388651;19;20006;-78
2022/06/08 03:57:33;;;;;;;3.65;0.75;;;;;;;;;;7396779;19;20022;-79
2022/06/08 04:00:00;;;;;;;1.92;0.63;;;;;;;;;;7388527;19;20006;-79
2022/06/08 04:02:26;;;;;;;1.73;0.50;;;;;;;;;;7393746;19;20411;-79
2022/06/08 04:04:52;;;;;;;4.25;0.70;;;;;;;;;;7390507;19;20021;-78
2022/06/08 04:07:17;;;;;;;0.57;0.50;;;;;;;;;;7388281;19;20015;-79
2022/06/08 04:09:43;;;;;;;5.03;0.77;;;;;;;;;;7393987;19;20373;-78
2022/06/08 04:12:09;;;;;;;1.15;0.60;;;;;;;;;;7394874;19;20014;-78
2022/06/08 04:14:35;;;;;;;4.25;0.80;;;;;;;;;;7393172;19;20006;-78
2022/06/08 04:17:01;;;;;;;0.85;0.77;;;;;;;;;;7394787;19;20027;-78
2022/06/08 04:19:28;;;;;;;2.63;0.80;;;;;;;;;;7389943;19;20758;-78
2022/06/08 04:21:54;;;;;;;2.65;0.75;;;;;;;;;;7394505;19;20034;-78
2022/06/08 04:24:20;;;;;;;0.90;0.70;;;;;;;;;;7378967;19;20122;-78
2022/06/08 04:26:46;;;;;;;5.88;0.75;;;;;;;;;;7391351;19;20026;-78
2022/06/08 04:29:12;;;;;;;0.77;0.52;;;;;;;;;;7392961;19;20014;-78
2022/06/08 04:31:37;;;;;;;3.47;0.70;;;;;;;;;;7395989;19;19994;-78
2022/06/08 04:34:05;;;;;;;1.13;0.68;;;;;;;;;;7396379;19;20011;-80
2022/06/08 04:36:31;;;;;;;1.55;0.60;;;;;;;;;;7394743;19;20046;-78
2022/06/08 04:38:57;;;;;;;1.10;0.50;;;;;;;;;;7395740;19;20009;-78
2022/06/08 04:41:24;;;;;;;0.80;0.75;;;;;;;;;;7392760;19;20007;-79
2022/06/08 04:43:49;;;;;;;2.22;0.60;;;;;;;;;;7395563;19;20017;-78
2022/06/08 04:46:17;;;;;;;3.03;0.80;;;;;;;;;;7392852;19;20006;-78
2022/06/08 04:48:44;;;;;;;3.63;0.65;;;;;;;;;;7395248;19;19998;-78
2022/06/08 04:51:11;;;;;;;0.60;0.60;;;;;;;;;;7395595;19;20015;-79
2022/06/08 04:53:41;;;;;;;0.68;0.65;;;;;;;;;;7394126;19;20017;-78
2022/06/08 04:56:07;;;;;;;0.70;0.60;;;;;;;;;;7394496;19;20017;-78
2022/06/08 04:58:33;;;;;;;0.75;0.75;;;;;;;;;;7393898;19;19994;-78
2022/06/08 05:00:59;;;;;;;2.92;0.75;;;;;;;;;;7392747;19;20010;-78
2022/06/08 05:03:25;;;;;;;1.15;0.55;;;;;;;;;;7393382;19;19998;-78
2022/06/08 05:05:50;;;;;;;0.93;0.65;;;;;;;;;;7395120;19;20042;-79
2022/06/08 05:08:18;;;;;;;0.77;0.77;;;;;;;;;;7390361;19;20011;-79
2022/06/08 05:10:44;;;;;;;0.63;0.55;;;;;;;;;;7391929;19;20038;-78
2022/06/08 05:13:11;;;;;;;0.60;0.60;;;;;;;;;;7391892;19;20003;-78
2022/06/08 05:15:41;;;;;;;1.48;0.88;;;;;;;;;;7390425;19;20034;-79
2022/06/08 05:18:08;;;;;;;1.08;0.70;;;;;;;;;;7390658;19;20002;-78
2022/06/08 05:20:35;;;;;;;1.25;0.68;;;;;;;;;;7391454;19;20006;-78
2022/06/08 05:23:03;;;;;;;0.60;0.60;;;;;;;;;;7392816;19;20026;-78
2022/06/08 05:25:35;;;;;;;1.88;0.73;;;;;;;;;;7390301;19;20033;-79
2022/06/08 05:28:02;;;;;;;1.10;0.60;;;;;;;;;;7391155;19;20107;-78
2022/06/08 05:30:27;;;;;;;2.90;0.60;;;;;;;;;;7378799;19;20007;-76
2022/06/08 05:32:53;;;;;;;0.60;0.60;;;;;;;;;;7392811;19;20017;-79
2022/06/08 05:35:19;;;;;;;0.70;0.60;;;;;;;;;;7399450;19;20006;-78
2022/06/08 05:37:44;;;;;;;1.55;0.77;;;;;;;;;;7397674;19;20003;-78
2022/06/08 05:40:10;;;;;;;2.58;0.57;;;;;;;;;;7394523;19;20018;-78
2022/06/08 05:42:36;;;;;;;1.70;0.90;;;;;;;;;;7397734;19;19998;-79
2022/06/08 05:45:04;;;;;;;1.35;0.60;;;;;;;;;;7395744;19;20364;-79
2022/06/08 05:47:30;;;;;;;3.00;0.80;;;;;;;;;;7392943;19;20002;-79
2022/06/08 05:49:55;;;;;;;1.27;0.60;;;;;;;;;;7392114;19;20019;-78
2022/06/08 05:52:20;;;;;;;0.82;0.40;;;;;;;;;;7393084;19;20445;-78
2022/06/08 05:54:46;;;;;;;3.70;0.68;;;;;;;;;;7391498;19;21932;-79
2022/06/08 05:57:11;;;;;;;2.67;0.63;;;;;;;;;;7395931;19;20015;-79
2022/06/08 05:59:38;;;;;;;1.55;0.70;;;;;;;;;;7393973;19;20006;-78
2022/06/08 06:02:04;;;;;;;1.60;0.60;;;;;;;;;;7385501;19;20523;-78
2022/06/08 06:04:29;;;;;;;0.60;0.43;;;;;;;;;;7388028;19;20020;-78
2022/06/08 06:06:55;;;;;;;3.55;1.23;;;;;;;;;;7392886;19;20002;-77
2022/06/08 06:09:21;;;;;;;0.50;0.50;;;;;;;;;;7392303;19;20034;-78
2022/06/08 06:11:47;;;;;;;2.15;0.50;;;;;;;;;;7396604;19;20007;-78
2022/06/08 06:14:12;;;;;;;0.98;0.50;;;;;;;;;;7394513;19;20017;-78
2022/06/08 06:16:38;;;;;;;3.15;0.70;;;;;;;;;;7392103;19;20003;-77
2022/06/08 06:19:03;;;;;;;3.38;0.80;;;;;;;;;;7391829;19;20454;-78
2022/06/08 06:21:29;;;;;;;4.82;0.65;;;;;;;;;;7395074;19;20086;-78
2022/06/08 06:23:57;;;;;;;1.00;0.60;;;;;;;;;;7390856;19;20049;-78
2022/06/08 06:26:22;;;;;;;0.85;0.65;;;;;;;;;;7395872;19;20096;-78
2022/06/08 06:28:48;;;;;;;1.38;0.47;;;;;;;;;;7392762;19;20038;-78
2022/06/08 06:31:20;;;;;;;0.70;0.70;;;;;;;;;;7394329;19;20494;-78
2022/06/08 06:33:46;;;;;;;1.02;0.57;;;;;;;;;;7391010;19;20006;-78
2022/06/08 06:36:12;;;;;;;0.70;0.60;;;;;;;;;;7395691;19;20432;-78
2022/06/08 06:38:37;;;;;;;0.80;0.70;;;;;;;;;;7392111;19;20015;-78
2022/06/08 06:41:03;;;;;;;1.85;0.65;;;;;;;;;;7390726;19;20023;-78
2022/06/08 06:43:28;;;;;;;1.30;0.50;;;;;;;;;;7389941;19;20507;-78
2022/06/08 06:45:54;;;;;;;4.03;0.60;;;;;;;;;;7393014;19;20002;-77
2022/06/08 06:48:19;;;;;;;1.17;0.82;;;;;;;;;;7392908;19;20019;-78
2022/06/08 06:50:44;;;;;;;0.70;0.50;;;;;;;;;;7393776;19;20046;-77
2022/06/08 06:53:12;;;;;;;0.82;0.38;;;;;;;;;;7381891;19;20014;-77
2022/06/08 06:55:37;;;;;;;1.73;0.90;;;;;;;;;;7383054;19;20014;-77
2022/06/08 06:58:02;;;;;;;3.60;0.93;;;;;;;;;;7387500;19;20009;-77
2022/06/08 07:00:28;;;;;;;0.85;0.60;;;;;;;;;;7387316;19;20019;-77
2022/06/08 07:02:54;;;;;;;0.80;0.60;;;;;;;;;;7388644;19;20013;-77
2022/06/08 07:05:23;;;;;;;0.98;0.80;;;;;;;;;;7384837;19;20003;-76
2022/06/08 07:07:49;;;;;;;1.55;0.60;;;;;;;;;;7385507;19;20035;-77
2022/06/08 07:10:15;;;;;;;0.80;0.50;;;;;;;;;;7386928;19;20074;-78
2022/06/08 07:12:42;;;;;;;2.00;0.70;;;;;;;;;;7385781;19;20351;-78
2022/06/08 07:15:08;;;;;;;1.02;0.60;;;;;;;;;;7390568;19;20491;-78
2022/06/08 07:17:33;;;;;;;3.17;1.00;;;;;;;;;;7390011;19;20018;-78
2022/06/08 07:19:59;;;;;;;2.63;1.48;;;;;;;;;;7394192;19;20026;-78
2022/06/08 07:22:24;;;;;;;1.70;0.40;;;;;;;;;;7389396;19;20617;-78
2022/06/08 07:24:49;;;;;;;1.50;0.60;;;;;;;;;;7398045;19;20014;-77
2022/06/08 07:27:16;;;;;;;1.25;0.70;;;;;;;;;;7385900;19;20092;-77
2022/06/08 07:29:42;;;;;;;1.35;0.70;;;;;;;;;;7387191;19;20006;-78
2022/06/08 07:32:08;;;;;;;1.58;0.70;;;;;;;;;;7390831;19;20011;-78
2022/06/08 07:34:34;;;;;;;1.98;0.70;;;;;;;;;;7398367;19;20519;-78
2022/06/08 07:37:01;;;;;;;0.63;0.60;;;;;;;;;;7391807;19;20010;-77
2022/06/08 07:39:27;;;;;;;0.85;0.35;;;;;;;;;;7382375;19;20018;-76
2022/06/08 07:41:53;;;;;;;1.95;0.65;;;;;;;;;;7391729;19;20021;-77
2022/06/08 07:44:19;;;;;;;1.85;0.80;;;;;;;;;;7390194;19;20003;-77
2022/06/08 07:46:46;;;;;;;2.72;0.65;;;;;;;;;;7395544;19;20014;-77
2022/06/08 07:51:58;;;;;;;0.60;0.60;;;;;;;;;;7395562;19;20040;-78
2022/06/08 07:54:26;;;;;;;1.73;0.65;;;;;;;;;;7395112;19;20475;-78
2022/06/08 07:56:53;;;;;;;1.65;0.77;;;;;;;;;;7396801;19;20014;-78
2022/06/08 07:59:21;;;;;;;3.13;0.73;;;;;;;;;;7392720;19;20006;-77
2022/06/08 08:01:47;;;;;;;0.35;0.35;;;;;;;;;;7393775;19;20017;-76
2022/06/08 08:04:12;;;;;;;1.23;0.60;;;;;;;;;;7394403;19;20010;-77
2022/06/08 08:06:38;;;;;;;2.97;0.75;;;;;;;;;;7394677;19;20379;-76
2022/06/08 08:09:03;;;;;;;2.60;0.55;;;;;;;;;;7390914;19;20362;-77
2022/06/08 08:11:29;;;;;;;2.97;0.70;;;;;;;;;;7393741;19;20383;-77
2022/06/08 08:13:54;;;;;;;1.00;0.40;;;;;;;;;;7389216;19;20003;-77
2022/06/08 08:16:19;;;;;;;1.55;0.60;;;;;;;;;;7389084;19;20074;-77
2022/06/08 08:18:45;;;;;;;2.00;0.75;;;;;;;;;;7384012;19;20423;-77
2022/06/08 08:21:10;;;;;;;2.75;0.63;;;;;;;;;;7393417;19;20027;-77
2022/06/08 08:23:36;;;;;;;1.10;0.55;;;;;;;;;;7392882;19;20010;-77
2022/06/08 08:26:01;;;;;;;1.50;0.50;;;;;;;;;;7394024;19;20018;-77
2022/06/08 08:28:27;;;;;;;0.45;0.22;;;;;;;;;;7392563;19;20463;-78
2022/06/08 08:30:52;;;;;;;3.72;0.60;;;;;;;;;;7393098;19;20328;-77
2022/06/08 08:33:18;;;;;;;0.98;0.50;;;;;;;;;;7393349;19;20347;-77
2022/06/08 08:35:43;;;;;;;1.55;0.40;;;;;;;;;;7391449;19;20014;-77
2022/06/08 08:38:09;;;;;;;2.65;0.80;;;;;;;;;;7390726;19;20482;-77
2022/06/08 08:40:44;;;;;;;0.73;0.40;;;;;;;;;;7390969;19;20015;-77
2022/06/08 08:43:14;;;;;;;1.70;0.65;;;;;;;;;;7393060;19;20396;-77
2022/06/08 08:45:45;;;;;;;1.73;0.57;;;;;;;;;;7392910;19;20361;-77
2022/06/08 08:48:26;;;;;;;0.85;0.40;;;;;;;;;;7391253;19;20035;-78
2022/06/08 08:51:04;;;;;;;1.02;0.85;;;;;;;;;;7394729;19;20028;-77
2022/06/08 08:53:46;;;;;;;2.53;0.57;;;;;;;;;;7391939;19;20010;-77
2022/06/08 08:56:15;;;;;;;2.33;0.63;;;;;;;;;;7389238;19;20013;-77
2022/06/08 08:58:44;;;;;;;1.38;0.30;;;;;;;;;;7391264;19;20102;-78
2022/06/08 09:01:31;;;;;;;0.70;0.40;;;;;;;;;;7387368;19;20363;-77
2022/06/08 09:04:24;;;;;;;1.20;0.50;;;;;;;;;;7390560;19;20022;-77
2022/06/08 09:06:50;;;;;;;2.25;0.60;;;;;;;;;;7386135;19;20027;-77
2022/06/08 09:09:30;;;;;;;1.85;0.68;;;;;;;;;;7387927;19;20007;-77
2022/06/08 09:11:55;;;;;;;4.22;0.57;;;;;;;;;;7391433;19;20046;-77
2022/06/08 09:14:24;;;;;;;0.40;0.32;;;;;;;;;;7392931;19;20475;-77
2022/06/08 09:17:09;;;;;;;1.38;0.50;;;;;;;;;;7392419;19;20474;-77
2022/06/08 09:19:43;;;;;;;1.13;0.40;;;;;;;;;;7390836;19;20031;-77
2022/06/08 09:22:08;;;;;;;0.57;0.30;;;;;;;;;;7389935;19;20017;-77
2022/06/08 09:24:59;;;;;;;4.75;0.50;;;;;;;;;;7393173;19;20038;-77
2022/06/08 09:27:24;;;;;;;0.52;0.52;;;;;;;;;;7390284;19;20081;-77
2022/06/08 09:30:13;;;;;;;1.20;0.43;;;;;;;;;;7390683;19;20006;-77
2022/06/08 09:32:46;;;;;;;1.38;0.60;;;;;;;;;;7392886;19;20088;-77
2022/06/08 09:35:21;;;;;;;0.63;0.38;;;;;;;;;;7391268;19;20013;-77
2022/06/08 09:37:49;;;;;;;1.10;0.50;;;;;;;;;;7389828;19;20006;-77
2022/06/08 09:40:37;;;;;;;0.40;0.40;;;;;;;;;;7390487;19;20026;-78
2022/06/08 09:43:34;;;;;;;1.40;0.60;;;;;;;;;;7388324;19;20031;-77
2022/06/08 09:46:18;;;;;;;1.55;0.60;;;;;;;;;;7388806;19;20486;-77
2022/06/08 09:51:45;;;;;;;1.65;0.40;;;;;;;;;;7393426;19;20034;-77
2022/06/08 09:54:20;;;;;;;1.33;0.40;;;;;;;;;;7390953;19;20014;-77
2022/06/08 09:57:24;;;;;;;2.58;0.63;;;;;;;;;;7391269;19;20490;-77
2022/06/08 10:00:27;;;;;;;1.58;0.57;;;;;;;;;;7388832;19;20023;-77
2022/06/08 10:02:58;;;;;;;0.75;0.30;;;;;;;;;;7389166;19;20010;-77
2022/06/08 10:05:54;;;;;;;1.75;0.60;;;;;;;;;;7389325;19;20027;-78
2022/06/08 10:08:24;;;;;;;3.20;0.63;;;;;;;;;;7389476;19;20007;-77
2022/06/08 10:11:34;;;;;;;0.50;0.45;;;;;;;;;;7391501;19;20010;-77
2022/06/08 10:13:58;;;;;;;1.65;0.50;;;;;;;;;;7390563;19;20015;-77
2022/06/08 10:16:28;;;;;;;1.30;0.45;;;;;;;;;;7388920;19;20006;-77
2022/06/08 10:18:57;;;;;;;2.58;0.45;;;;;;;;;;7386715;19;20351;-77
2022/06/08 10:21:31;;;;;;;2.55;0.60;;;;;;;;;;7388878;19;20414;-77
2022/06/08 10:24:24;;;;;;;0.40;0.40;;;;;;;;;;7385468;19;20022;-77
2022/06/08 10:27:06;;;;;;;2.83;0.47;;;;;;;;;;7387932;19;20070;-77
2022/06/08 10:29:45;;;;;;;1.15;0.52;;;;;;;;;;7388707;19;20460;-77
2022/06/08 10:32:25;;;;;;;0.75;0.40;;;;;;;;;;7389371;19;20039;-77
2022/06/08 10:34:54;;;;;;;0.57;0.30;;;;;;;;;;7389276;19;20019;-77
2022/06/08 10:37:40;;;;;;;1.45;0.55;;;;;;;;;;7389842;19;20011;-77
2022/06/08 10:40:36;;;;;;;0.80;0.30;;;;;;;;;;7387062;19;20018;-77
2022/06/08 10:43:03;;;;;;;0.75;0.30;;;;;;;;;;7388662;19;20014;-77
2022/06/08 10:45:37;;;;;;;2.03;0.57;;;;;;;;;;7388434;19;20593;-77
2022/06/08 10:48:11;;;;;;;2.67;0.60;;;;;;;;;;7389728;19;20011;-77
2022/06/08 10:50:43;;;;;;;3.13;0.55;;;;;;;;;;7388701;19;20357;-77
2022/06/08 10:56:34;;;;;;;0.45;0.30;;;;;;;;;;7398365;19;20045;-77
2022/06/08 10:59:03;;;;;;;2.33;0.40;;;;;;;;;;7394497;19;20010;-77
2022/06/08 11:02:15;;;;;;;3.40;0.40;;;;;;;;;;7398516;19;20482;-77
2022/06/08 11:04:54;;;;;;;2.00;0.60;;;;;;;;;;7395967;19;20040;-78
2022/06/08 11:07:22;;;;;;;0.50;0.50;;;;;;;;;;7388293;19;20347;-77
2022/06/08 11:09:57;;;;;;;0.90;0.35;;;;;;;;;;7393314;19;20025;-77
2022/06/08 11:12:30;;;;;;;3.22;0.57;;;;;;;;;;7398494;19;20014;-77
2022/06/08 11:15:00;;;;;;;1.48;0.50;;;;;;;;;;7394593;19;20049;-77
2022/06/08 11:17:35;;;;;;;0.93;0.40;;;;;;;;;;7392934;19;20007;-77
2022/06/08 11:20:14;;;;;;;2.20;0.45;;;;;;;;;;7394743;19;20321;-77
2022/06/08 11:22:45;;;;;;;1.00;0.50;;;;;;;;;;7401038;19;20144;-78
2022/06/08 11:25:17;;;;;;;2.22;0.50;;;;;;;;;;7412731;19;20030;-77
2022/06/08 11:27:43;;;;;;;1.15;0.50;;;;;;;;;;7414298;19;20011;-78
2022/06/08 11:30:21;;;;;;;3.53;0.40;;;;;;;;;;7414784;19;20003;-78
2022/06/08 11:32:52;;;;;;;0.95;0.43;;;;;;;;;;7413844;19;20002;-78
2022/06/08 11:35:38;;;;;;;0.90;0.52;;;;;;;;;;7412066;19;20006;-78
2022/06/08 11:38:35;;;;;;;2.85;0.60;;;;;;;;;;7413697;19;20321;-78
2022/06/08 11:41:25;;;;;;;2.42;0.60;;;;;;;;;;7416865;19;20010;-78
2022/06/08 11:43:51;;;;;;;1.45;0.50;;;;;;;;;;7413987;19;20673;-78
2022/06/08 11:46:39;;;;;;;1.52;0.50;;;;;;;;;;7415082;19;20050;-78
2022/06/08 11:49:07;;;;;;;1.45;0.50;;;;;;;;;;7414433;19;20019;-79
2022/06/08 11:51:39;;;;;;;1.85;0.52;;;;;;;;;;7398230;19;19999;-77
2022/06/08 11:54:32;;;;;;;2.05;0.60;;;;;;;;;;7398274;19;20010;-79
2022/06/08 11:56:58;;;;;;;2.60;0.40;;;;;;;;;;7399180;19;20470;-79
2022/06/08 11:59:24;;;;;;;0.95;0.43;;;;;;;;;;7398910;19;20070;-79
2022/06/08 12:01:53;;;;;;;0.82;0.60;;;;;;;;;;7397922;19;20354;-79
2022/06/08 12:04:24;;;;;;;2.53;0.70;;;;;;;;;;7392511;19;20368;-78
2022/06/08 12:06:51;;;;;;;1.50;0.52;;;;;;;;;;7392448;19;20022;-79
2022/06/08 12:09:20;;;;;;;2.05;0.80;;;;;;;;;;7393897;19;20018;-79
2022/06/08 12:11:51;;;;;;;1.85;0.57;;;;;;;;;;7399699;19;20037;-79
2022/06/08 12:14:28;;;;;;;2.92;0.70;;;;;;;;;;7387501;19;20013;-77
2022/06/08 12:16:57;;;;;;;1.02;0.60;;;;;;;;;;7398244;19;19994;-79
2022/06/08 12:19:24;;;;;;;2.25;0.80;;;;;;;;;;7387083;19;20018;-77
2022/06/08 12:22:07;;;;;;;1.50;0.60;;;;;;;;;;7399218;19;20018;-80
2022/06/08 12:24:33;;;;;;;2.13;0.73;;;;;;;;;;7395732;19;20089;-79
2022/06/08 12:27:03;;;;;;;4.30;1.30;;;;;;;;;;7390508;19;19998;-77
2022/06/08 12:29:32;;;;;;;0.95;0.60;;;;;;;;;;7391870;19;20017;-77
2022/06/08 12:32:06;;;;;;;1.73;0.68;;;;;;;;;;7393894;19;20007;-77
2022/06/08 12:34:37;;;;;;;2.58;1.10;;;;;;;;;;7393580;19;20472;-77
2022/06/08 12:37:30;;;;;;;1.20;0.63;;;;;;;;;;7392319;19;20003;-77
2022/06/08 12:40:24;;;;;;;2.40;0.52;;;;;;;;;;7390845;19;20038;-77
2022/06/08 12:43:12;;;;;;;1.70;0.60;;;;;;;;;;7389775;19;20034;-77
2022/06/08 12:46:02;;;;;;;1.20;0.57;;;;;;;;;;7392358;19;20002;-77
2022/06/08 12:48:37;;;;;;;1.83;0.73;;;;;;;;;;7391964;19;20372;-78
2022/06/08 12:51:25;;;;;;;0.60;0.40;;;;;;;;;;7390592;19;20014;-77
2022/06/08 12:53:51;;;;;;;1.15;0.45;;;;;;;;;;7388685;19;20006;-77
2022/06/08 12:56:18;;;;;;;1.58;0.50;;;;;;;;;;7392052;19;20017;-77
2022/06/08 12:58:46;;;;;;;1.15;0.63;;;;;;;;;;7385250;19;20022;-75
2022/06/08 13:01:12;;;;;;;2.22;0.63;;;;;;;;;;7388837;19;20017;-77
2022/06/08 13:03:39;;;;;;;1.67;0.68;;;;;;;;;;7381917;19;20025;-77
2022/06/08 13:06:05;;;;;;;2.40;0.50;;;;;;;;;;7364042;19;20010;-77
2022/06/08 13:08:32;;;;;;;1.25;0.60;;;;;;;;;;7371644;19;20561;-77
2022/06/08 13:11:00;;;;;;;1.77;0.50;;;;;;;;;;7375978;19;22096;-77
2022/06/08 13:13:29;;;;;;;2.45;0.60;;;;;;;;;;7375143;19;20329;-77
2022/06/08 13:15:57;;;;;;;1.45;0.47;;;;;;;;;;7384156;19;20018;-77
2022/06/08 13:18:26;;;;;;;0.85;0.40;;;;;;;;;;7387069;19;20427;-78
2022/06/08 13:20:54;;;;;;;0.90;0.50;;;;;;;;;;7389721;19;20025;-77
2022/06/08 13:23:21;;;;;;;1.13;0.52;;;;;;;;;;7381080;19;20549;-77
2022/06/08 13:25:48;;;;;;;0.65;0.50;;;;;;;;;;7385597;19;20014;-77
2022/06/08 13:28:18;;;;;;;4.13;0.52;;;;;;;;;;7385463;19;20011;-76
2022/06/08 13:30:46;;;;;;;1.05;0.50;;;;;;;;;;7381022;19;20017;-76
2022/06/08 13:35:59;;;;;;;1.08;0.50;;;;;;;;;;7385821;19;20033;-77
2022/06/08 13:38:24;;;;;;;1.60;0.30;;;;;;;;;;7385855;19;20502;-76
2022/06/08 13:40:50;;;;;;;0.82;0.40;;;;;;;;;;7382504;19;20222;-76
2022/06/08 13:43:15;;;;;;;0.90;0.40;;;;;;;;;;7383587;19;20010;-77
2022/06/08 13:45:42;;;;;;;0.68;0.50;;;;;;;;;;7386263;19;20407;-77
2022/06/08 13:48:16;;;;;;;0.82;0.38;;;;;;;;;;7383329;19;20010;-76
2022/06/08 13:50:44;;;;;;;4.63;0.52;;;;;;;;;;7388142;19;20018;-77
2022/06/08 13:53:29;;;;;;;0.90;0.40;;;;;;;;;;7385776;19;20018;-77
2022/06/08 13:55:58;;;;;;;0.43;0.40;;;;;;;;;;7386133;19;20021;-77
2022/06/08 13:58:25;;;;;;;1.27;0.60;;;;;;;;;;7389727;19;20039;-77
2022/06/08 14:00:56;;;;;;;0.75;0.40;;;;;;;;;;7389896;19;20029;-77
2022/06/08 14:03:36;;;;;;;0.77;0.40;;;;;;;;;;7382691;19;20487;-76
2022/06/08 14:14:20;;;;;;;0.52;0.28;;;;;;;;;;7390220;19;20081;-76
2022/06/08 14:16:52;;;;;;;1.05;0.50;;;;;;;;;;7385038;19;19999;-76
2022/06/08 14:19:35;;;;;;;1.08;0.50;;;;;;;;;;7378423;19;20011;-76
2022/06/08 14:22:04;;;;;;;0.95;0.45;;;;;;;;;;7380401;19;20002;-76
2022/06/08 14:24:53;;;;;;;2.05;0.50;;;;;;;;;;7384431;19;20014;-76
2022/06/08 14:27:20;;;;;;;3.25;0.70;;;;;;;;;;7378885;19;20006;-76
2022/06/08 14:29:47;;;;;;;1.30;0.50;;;;;;;;;;7386224;19;20064;-76
2022/06/08 14:32:15;;;;;;;1.02;0.50;;;;;;;;;;7388357;19;20015;-77
2022/06/08 14:34:41;;;;;;;1.83;0.63;;;;;;;;;;7395675;19;20606;-77
2022/06/08 14:37:08;;;;;;;0.77;0.40;;;;;;;;;;7392156;19;20016;-76
2022/06/08 14:39:37;;;;;;;1.90;0.32;;;;;;;;;;7393472;19;20136;-76
2022/06/08 14:42:04;;;;;;;1.45;0.50;;;;;;;;;;7387590;19;20490;-76
2022/06/08 14:44:29;;;;;;;0.60;0.50;;;;;;;;;;7395595;19;20014;-77
2022/06/08 14:47:12;;;;;;;1.42;0.43;;;;;;;;;;7391534;19;20074;-76
2022/06/08 14:49:38;;;;;;;1.25;0.63;;;;;;;;;;7382485;19;20006;-78
2022/06/08 14:52:06;;;;;;;0.40;0.28;;;;;;;;;;7390213;19;20035;-76
2022/06/08 14:54:34;;;;;;;1.10;0.40;;;;;;;;;;7390975;19;20074;-76
2022/06/08 14:57:05;;;;;;;0.65;0.35;;;;;;;;;;7395134;19;20473;-76
2022/06/08 14:59:33;;;;;;;0.73;0.40;;;;;;;;;;7393993;19;20014;-76
2022/06/08 15:02:00;;;;;;;1.15;0.40;;;;;;;;;;7389117;19;20364;-76
2022/06/08 15:04:27;;;;;;;1.35;0.45;;;;;;;;;;7386656;19;20034;-76
2022/06/08 15:06:53;;;;;;;3.40;0.47;;;;;;;;;;7392198;19;20007;-76
2022/06/08 15:09:20;;;;;;;1.85;0.50;;;;;;;;;;7390424;19;20021;-76
2022/06/08 15:11:59;;;;;;;1.13;0.50;;;;;;;;;;7388597;19;20002;-76
2022/06/08 15:14:51;;;;;;;1.10;0.40;;;;;;;;;;7392282;19;20023;-76
2022/06/08 15:17:28;;;;;;;1.92;0.40;;;;;;;;;;7392593;19;20014;-76
2022/06/08 15:19:59;;;;;;;1.15;0.50;;;;;;;;;;7388924;19;20018;-76
2022/06/08 15:22:29;;;;;;;0.57;0.38;;;;;;;;;;7392354;19;20018;-76
2022/06/08 15:24:55;;;;;;;1.20;0.50;;;;;;;;;;7392070;19;20506;-76
2022/06/08 15:27:25;;;;;;;1.38;0.68;;;;;;;;;;7389840;19;20481;-76
2022/06/08 15:29:51;;;;;;;3.90;0.60;;;;;;;;;;7389530;19;20025;-76
2022/06/08 15:32:21;;;;;;;1.55;0.75;;;;;;;;;;7386488;19;20014;-76